Time;durP1;ratioP1;P1;durP2;ratioP2;P2;SDS_P1;SDS_P2;PMS_P1;PMS_P2;Temp;Humidity;BMP_temperature;BMP_pressure;BME280_temperature;BME280_humidity;BME280_pressure;Samples;Min_cycle;Max_cycle;Signal;HPM_P1;HPM_P2
2022/10/11 00:01:13;;;;;;;6.43;2.28;;;;;;;;;;6181617;23;20029;-75
2022/10/11 00:03:40;;;;;;;8.25;2.20;;;;;;;;;;6181382;23;20037;-76
2022/10/11 00:06:07;;;;;;;10.48;2.13;;;;;;;;;;6182935;23;20032;-76
2022/10/11 00:08:34;;;;;;;6.65;2.00;;;;;;;;;;6181759;23;20029;-76
2022/10/11 00:11:02;;;;;;;6.30;2.10;;;;;;;;;;6183926;23;20040;-76
2022/10/11 00:13:29;;;;;;;7.72;2.03;;;;;;;;;;6182228;23;20025;-76
2022/10/11 00:15:55;;;;;;;6.90;1.80;;;;;;;;;;6181236;23;20025;-76
2022/10/11 00:18:22;;;;;;;7.43;2.20;;;;;;;;;;6181964;23;20106;-76
2022/10/11 00:20:48;;;;;;;7.90;1.85;;;;;;;;;;6183442;23;20085;-76
2022/10/11 00:23:15;;;;;;;8.43;1.95;;;;;;;;;;6182104;23;20048;-76
2022/10/11 00:25:41;;;;;;;11.07;2.65;;;;;;;;;;6181211;23;20030;-76
2022/10/11 00:28:07;;;;;;;5.72;1.85;;;;;;;;;;6183048;23;20095;-76
2022/10/11 00:30:33;;;;;;;8.95;2.10;;;;;;;;;;6183377;23;20030;-76
2022/10/11 00:33:00;;;;;;;5.20;1.67;;;;;;;;;;6182096;23;20823;-76
2022/10/11 00:35:26;;;;;;;7.13;1.70;;;;;;;;;;6183501;23;20746;-76
2022/10/11 00:37:54;;;;;;;6.93;1.80;;;;;;;;;;6180969;23;20041;-76
2022/10/11 00:40:21;;;;;;;5.03;1.73;;;;;;;;;;6183988;23;20025;-76
2022/10/11 00:42:47;;;;;;;4.90;2.00;;;;;;;;;;6182094;23;20033;-76
2022/10/11 00:45:26;;;;;;;4.45;1.63;;;;;;;;;;6182091;23;20482;-76
2022/10/11 00:47:56;;;;;;;7.30;2.20;;;;;;;;;;6183415;23;20032;-76
2022/10/11 00:50:23;;;;;;;10.32;2.30;;;;;;;;;;6181526;23;20033;-76
2022/10/11 00:52:54;;;;;;;9.60;2.00;;;;;;;;;;6183327;23;20033;-76
2022/10/11 00:55:21;;;;;;;9.52;1.98;;;;;;;;;;6181155;23;20029;-76
2022/10/11 00:57:48;;;;;;;5.45;1.77;;;;;;;;;;6181672;23;20029;-76
2022/10/11 01:00:14;;;;;;;7.60;2.25;;;;;;;;;;6181708;23;20025;-76
2022/10/11 01:02:41;;;;;;;6.25;2.10;;;;;;;;;;6183511;23;20042;-76
2022/10/11 01:05:09;;;;;;;6.28;1.80;;;;;;;;;;6183107;23;20867;-76
2022/10/11 01:07:55;;;;;;;5.97;1.70;;;;;;;;;;6181611;23;20021;-76
2022/10/11 01:10:21;;;;;;;8.13;1.95;;;;;;;;;;6182530;23;20033;-76
2022/10/11 01:12:56;;;;;;;4.38;1.33;;;;;;;;;;6181683;23;20463;-78
2022/10/11 01:15:37;;;;;;;6.80;1.80;;;;;;;;;;6181624;23;20030;-78
2022/10/11 01:18:28;;;;;;;6.95;1.77;;;;;;;;;;6180905;23;20033;-78
2022/10/11 01:21:23;;;;;;;7.60;2.10;;;;;;;;;;6180392;23;20037;-78
2022/10/11 01:23:59;;;;;;;5.90;1.38;;;;;;;;;;6160919;23;20076;-77
2022/10/11 01:26:32;;;;;;;5.15;1.55;;;;;;;;;;6183758;23;20080;-78
2022/10/11 01:29:08;;;;;;;7.32;1.80;;;;;;;;;;6181972;23;20034;-78
2022/10/11 01:31:39;;;;;;;8.25;1.90;;;;;;;;;;6179730;23;20036;-78
2022/10/11 01:34:25;;;;;;;11.32;1.63;;;;;;;;;;6179979;23;20336;-78
2022/10/11 01:37:04;;;;;;;5.63;1.60;;;;;;;;;;6181046;23;20025;-78
2022/10/11 01:39:39;;;;;;;11.25;1.73;;;;;;;;;;6182451;23;20036;-78
2022/10/11 01:42:08;;;;;;;6.00;1.60;;;;;;;;;;6182461;23;20426;-78
2022/10/11 01:44:35;;;;;;;7.30;1.70;;;;;;;;;;6182923;23;20509;-78
2022/10/11 01:47:01;;;;;;;5.43;1.92;;;;;;;;;;6182616;23;20037;-77
2022/10/11 01:49:28;;;;;;;5.00;1.60;;;;;;;;;;6181308;23;20033;-78
2022/10/11 01:51:57;;;;;;;10.98;1.73;;;;;;;;;;6181965;23;20037;-77
2022/10/11 01:54:29;;;;;;;6.13;1.60;;;;;;;;;;6182802;23;20064;-77
2022/10/11 01:57:35;;;;;;;6.47;1.67;;;;;;;;;;6180459;23;20025;-76
2022/10/11 02:00:04;;;;;;;4.95;1.40;;;;;;;;;;6182844;23;20029;-76
2022/10/11 02:02:55;;;;;;;8.43;1.73;;;;;;;;;;6181034;23;20033;-77
2022/10/11 02:05:21;;;;;;;;;;;;;;;;;;6183241;23;20028;-77
2022/10/11 02:07:50;;;;;;;5.55;1.50;;;;;;;;;;6167108;23;47348;-76
2022/10/11 02:10:23;;;;;;;6.25;1.50;;;;;;;;;;6153003;23;20030;-77
2022/10/11 02:12:58;;;;;;;5.78;1.52;;;;;;;;;;6151920;23;20096;-77
2022/10/11 02:15:27;;;;;;;5.00;1.65;;;;;;;;;;6151361;23;20029;-76
2022/10/11 02:17:55;;;;;;;6.95;1.58;;;;;;;;;;6151138;23;20026;-77
2022/10/11 02:20:23;;;;;;;6.10;1.55;;;;;;;;;;6151709;23;20030;-76
2022/10/11 02:22:52;;;;;;;9.13;2.03;;;;;;;;;;6152233;23;20033;-76
2022/10/11 02:25:23;;;;;;;10.95;2.00;;;;;;;;;;6152206;23;20037;-76
2022/10/11 02:27:51;;;;;;;6.70;1.80;;;;;;;;;;6126812;23;20037;-76
2022/10/11 02:30:18;;;;;;;8.10;1.95;;;;;;;;;;6152020;23;20026;-76
2022/10/11 02:32:46;;;;;;;9.20;2.00;;;;;;;;;;6125553;23;20030;-76
2022/10/11 02:35:12;;;;;;;6.22;2.08;;;;;;;;;;6126737;23;20026;-76
2022/10/11 02:37:46;;;;;;;9.00;2.03;;;;;;;;;;6151910;23;20037;-76
2022/10/11 02:40:21;;;;;;;6.55;1.80;;;;;;;;;;6152207;23;20041;-77
2022/10/11 02:42:50;;;;;;;9.32;2.25;;;;;;;;;;6126177;23;20073;-76
2022/10/11 02:45:36;;;;;;;5.97;1.90;;;;;;;;;;6126936;23;20030;-76
2022/10/11 02:48:03;;;;;;;9.73;2.20;;;;;;;;;;6153310;23;20029;-76
2022/10/11 02:50:30;;;;;;;12.55;2.28;;;;;;;;;;6127957;23;20037;-76
2022/10/11 02:52:56;;;;;;;8.65;1.90;;;;;;;;;;6128137;23;20085;-76
2022/10/11 02:55:22;;;;;;;5.80;2.20;;;;;;;;;;6152829;23;20794;-76
2022/10/11 02:57:49;;;;;;;5.20;1.90;;;;;;;;;;6126775;23;20026;-76
2022/10/11 03:00:15;;;;;;;5.45;1.85;;;;;;;;;;6152690;23;20030;-76
2022/10/11 03:02:41;;;;;;;4.38;1.80;;;;;;;;;;6152786;23;20028;-76
2022/10/11 03:05:07;;;;;;;11.75;2.50;;;;;;;;;;6127125;23;20026;-77
2022/10/11 03:07:34;;;;;;;10.70;2.60;;;;;;;;;;6142164;23;20096;-76
2022/10/11 03:10:01;;;;;;;7.05;2.30;;;;;;;;;;6181491;23;20029;-77
2022/10/11 03:12:27;;;;;;;5.65;2.05;;;;;;;;;;6184060;23;20028;-77
2022/10/11 03:14:53;;;;;;;6.90;2.35;;;;;;;;;;6185625;23;20519;-78
2022/10/11 03:17:19;;;;;;;9.05;2.47;;;;;;;;;;6181639;23;20022;-76
2022/10/11 03:20:03;;;;;;;7.15;2.40;;;;;;;;;;6180641;23;20025;-76
2022/10/11 03:22:29;;;;;;;8.20;2.90;;;;;;;;;;6182215;23;20025;-76
2022/10/11 03:24:55;;;;;;;9.52;3.00;;;;;;;;;;6183393;23;20030;-76
2022/10/11 03:27:29;;;;;;;11.95;2.45;;;;;;;;;;6182450;23;20064;-76
2022/10/11 03:29:55;;;;;;;7.35;2.83;;;;;;;;;;6181745;23;20538;-76
2022/10/11 03:32:22;;;;;;;7.35;2.60;;;;;;;;;;6183257;23;20517;-76
2022/10/11 03:34:48;;;;;;;7.55;2.88;;;;;;;;;;6184798;23;20033;-76
2022/10/11 03:37:14;;;;;;;8.98;2.58;;;;;;;;;;6182710;23;20029;-76
2022/10/11 03:39:41;;;;;;;10.48;2.78;;;;;;;;;;6185000;23;20029;-76
2022/10/11 03:42:07;;;;;;;7.13;2.20;;;;;;;;;;6182122;23;20029;-76
2022/10/11 03:44:33;;;;;;;6.90;2.65;;;;;;;;;;6184357;23;20025;-76
2022/10/11 03:46:59;;;;;;;6.03;2.15;;;;;;;;;;6183423;23;20033;-76
2022/10/11 03:49:26;;;;;;;10.43;2.30;;;;;;;;;;6183665;23;20379;-76
2022/10/11 03:51:52;;;;;;;8.93;2.58;;;;;;;;;;6182050;23;20025;-76
2022/10/11 03:54:18;;;;;;;9.77;2.60;;;;;;;;;;6180901;23;20030;-76
2022/10/11 03:56:44;;;;;;;13.23;2.70;;;;;;;;;;6182930;23;20574;-75
2022/10/11 03:59:10;;;;;;;4.90;2.17;;;;;;;;;;6182501;23;20507;-76
2022/10/11 04:01:37;;;;;;;7.90;2.60;;;;;;;;;;6181599;23;20032;-77
2022/10/11 04:04:04;;;;;;;10.32;2.78;;;;;;;;;;6182026;23;20036;-76
2022/10/11 04:06:30;;;;;;;7.97;2.75;;;;;;;;;;6182525;23;20033;-76
2022/10/11 04:08:56;;;;;;;8.20;2.55;;;;;;;;;;6155104;23;20030;-76
2022/10/11 04:11:23;;;;;;;6.63;3.00;;;;;;;;;;6127307;23;20029;-76
2022/10/11 04:13:49;;;;;;;7.53;2.72;;;;;;;;;;6153200;23;20034;-76
2022/10/11 04:16:15;;;;;;;5.88;2.22;;;;;;;;;;6153006;23;20037;-76
2022/10/11 04:18:42;;;;;;;6.25;2.30;;;;;;;;;;6151570;23;20061;-76
2022/10/11 04:21:08;;;;;;;10.02;2.85;;;;;;;;;;6127162;23;20480;-75
2022/10/11 04:23:34;;;;;;;10.48;3.03;;;;;;;;;;6127224;23;20037;-75
2022/10/11 04:26:03;;;;;;;10.23;3.17;;;;;;;;;;6126780;23;20030;-75
2022/10/11 04:28:30;;;;;;;11.32;3.35;;;;;;;;;;6153219;23;20025;-75
2022/10/11 04:30:56;;;;;;;9.40;3.00;;;;;;;;;;6151048;23;20518;-76
2022/10/11 04:33:23;;;;;;;8.88;3.42;;;;;;;;;;6153235;23;20041;-75
2022/10/11 04:35:52;;;;;;;10.40;3.40;;;;;;;;;;6152754;23;20036;-76
2022/10/11 04:38:18;;;;;;;9.13;4.20;;;;;;;;;;6127406;23;20022;-76
2022/10/11 04:40:45;;;;;;;10.85;4.32;;;;;;;;;;6152219;23;20479;-76
2022/10/11 04:43:11;;;;;;;15.45;4.13;;;;;;;;;;6152405;23;20029;-76
2022/10/11 04:45:37;;;;;;;11.32;3.92;;;;;;;;;;6153084;23;20038;-76
2022/10/11 04:48:04;;;;;;;10.57;4.45;;;;;;;;;;6152036;23;20030;-75
2022/10/11 04:50:30;;;;;;;10.00;4.57;;;;;;;;;;6153076;23;20029;-75
2022/10/11 04:52:56;;;;;;;10.50;4.97;;;;;;;;;;6127093;23;20034;-75
2022/10/11 04:55:23;;;;;;;12.85;4.63;;;;;;;;;;6152778;23;20026;-75
2022/10/11 04:57:49;;;;;;;17.02;5.55;;;;;;;;;;6153423;23;20030;-75
2022/10/11 05:00:15;;;;;;;12.50;4.80;;;;;;;;;;6153167;23;20033;-75
2022/10/11 05:02:42;;;;;;;13.57;4.80;;;;;;;;;;6127170;23;20026;-77
2022/10/11 05:05:08;;;;;;;9.90;4.10;;;;;;;;;;6152400;23;20045;-75
2022/10/11 05:07:34;;;;;;;11.48;4.38;;;;;;;;;;6143308;23;20026;-77
2022/10/11 05:10:01;;;;;;;10.93;4.22;;;;;;;;;;6181648;23;20025;-76
2022/10/11 05:12:27;;;;;;;19.05;7.85;;;;;;;;;;6181553;23;20029;-76
2022/10/11 05:14:53;;;;;;;17.17;6.55;;;;;;;;;;6180034;23;20032;-75
2022/10/11 05:17:20;;;;;;;18.25;6.03;;;;;;;;;;6182126;23;20032;-75
2022/10/11 05:19:51;;;;;;;10.50;4.40;;;;;;;;;;6182352;23;20029;-75
2022/10/11 05:22:18;;;;;;;;;;;;;;;;;;6182673;23;20021;-75
2022/10/11 05:24:44;;;;;;;11.15;3.95;;;;;;;;;;6180680;23;48180;-76
2022/10/11 05:27:10;;;;;;;7.95;3.70;;;;;;;;;;6183503;23;20069;-76
2022/10/11 05:29:37;;;;;;;11.40;3.83;;;;;;;;;;6182748;23;20029;-76
2022/10/11 05:32:03;;;;;;;13.48;4.05;;;;;;;;;;6182731;23;20424;-78
2022/10/11 05:34:29;;;;;;;11.13;3.67;;;;;;;;;;6183428;23;20029;-76
2022/10/11 05:36:56;;;;;;;7.55;3.67;;;;;;;;;;6181378;23;20122;-76
2022/10/11 05:39:22;;;;;;;10.57;3.92;;;;;;;;;;6181669;23;20072;-76
2022/10/11 05:41:48;;;;;;;13.85;4.68;;;;;;;;;;6183263;23;20025;-76
2022/10/11 05:44:15;;;;;;;15.55;5.05;;;;;;;;;;6182719;23;20033;-76
2022/10/11 05:46:41;;;;;;;9.73;4.38;;;;;;;;;;6183463;23;20030;-76
2022/10/11 05:49:07;;;;;;;12.75;4.20;;;;;;;;;;6183896;23;20025;-75
2022/10/11 05:51:34;;;;;;;13.10;4.35;;;;;;;;;;6181596;23;20514;-76
2022/10/11 05:54:00;;;;;;;11.85;4.80;;;;;;;;;;6183266;23;20032;-76
2022/10/11 05:56:26;;;;;;;13.35;4.38;;;;;;;;;;6181483;23;20033;-75
2022/10/11 05:58:53;;;;;;;9.15;4.03;;;;;;;;;;6182750;23;20042;-76
2022/10/11 06:01:25;;;;;;;12.95;4.30;;;;;;;;;;6182038;23;20067;-76
2022/10/11 06:03:52;;;;;;;14.20;5.20;;;;;;;;;;6183185;23;20021;-76
2022/10/11 06:06:19;;;;;;;12.23;5.07;;;;;;;;;;6180984;23;20479;-76
2022/10/11 06:08:45;;;;;;;12.45;4.65;;;;;;;;;;6181731;23;20025;-75
2022/10/11 06:11:16;;;;;;;12.82;4.22;;;;;;;;;;6182404;23;20450;-75
2022/10/11 06:13:43;;;;;;;18.92;4.65;;;;;;;;;;6181688;23;20060;-75
2022/10/11 06:16:10;;;;;;;11.57;4.03;;;;;;;;;;6181624;23;20080;-76
2022/10/11 06:18:36;;;;;;;12.32;4.47;;;;;;;;;;6182132;23;20040;-76
2022/10/11 06:21:03;;;;;;;8.65;3.63;;;;;;;;;;6181433;23;20029;-76
2022/10/11 06:23:29;;;;;;;12.65;4.57;;;;;;;;;;6181866;23;20032;-76
2022/10/11 06:25:56;;;;;;;13.35;4.93;;;;;;;;;;6181283;23;20033;-76
2022/10/11 06:28:23;;;;;;;9.88;4.28;;;;;;;;;;6181168;23;20037;-75
2022/10/11 06:30:50;;;;;;;11.32;4.40;;;;;;;;;;6183079;23;20037;-76
2022/10/11 06:33:16;;;;;;;10.23;3.95;;;;;;;;;;6180763;23;20037;-76
2022/10/11 06:35:42;;;;;;;14.32;4.72;;;;;;;;;;6206140;23;20533;-75
2022/10/11 06:38:09;;;;;;;13.30;4.32;;;;;;;;;;6182358;23;20029;-75
2022/10/11 06:40:35;;;;;;;10.73;5.07;;;;;;;;;;6182225;23;20693;-75
2022/10/11 06:43:01;;;;;;;11.93;6.03;;;;;;;;;;6179889;23;20033;-75
2022/10/11 06:45:28;;;;;;;12.18;5.57;;;;;;;;;;6182176;23;20041;-75
2022/10/11 06:47:54;;;;;;;16.08;5.72;;;;;;;;;;6181667;23;20025;-75
2022/10/11 06:50:20;;;;;;;9.73;5.07;;;;;;;;;;6181093;23;20034;-76
2022/10/11 06:53:07;;;;;;;15.70;4.93;;;;;;;;;;6180887;23;20029;-77
2022/10/11 06:55:33;;;;;;;11.90;5.07;;;;;;;;;;6183274;23;20025;-74
2022/10/11 06:57:59;;;;;;;16.27;5.15;;;;;;;;;;6182549;23;20029;-75
2022/10/11 07:00:26;;;;;;;16.80;4.97;;;;;;;;;;6183313;23;20048;-75
2022/10/11 07:02:52;;;;;;;10.65;4.47;;;;;;;;;;6182847;23;20056;-75
2022/10/11 07:05:18;;;;;;;10.38;5.28;;;;;;;;;;6181105;23;20033;-75
2022/10/11 07:07:45;;;;;;;9.32;4.63;;;;;;;;;;6169348;23;20141;-75
2022/10/11 07:10:11;;;;;;;12.05;4.90;;;;;;;;;;6152913;23;20025;-75
2022/10/11 07:12:37;;;;;;;14.95;5.38;;;;;;;;;;6152226;23;20034;-76
2022/10/11 07:15:04;;;;;;;14.23;5.00;;;;;;;;;;6153282;23;20025;-75
2022/10/11 07:17:30;;;;;;;11.13;4.97;;;;;;;;;;6152646;23;20037;-75
2022/10/11 07:19:56;;;;;;;60.28;7.80;;;;;;;;;;6152905;23;20041;-74
2022/10/11 07:22:22;;;;;;;1135.47;114.20;;;;;;;;;;6153393;23;20561;-76
2022/10/11 07:24:49;;;;;;;24.63;10.27;;;;;;;;;;6152505;23;20065;-75
2022/10/11 07:27:15;;;;;;;22.20;8.63;;;;;;;;;;6152379;23;20030;-75
2022/10/11 07:29:42;;;;;;;20.75;8.48;;;;;;;;;;6153363;23;20034;-75
2022/10/11 07:32:08;;;;;;;16.80;7.80;;;;;;;;;;6126810;23;20029;-75
2022/10/11 07:34:34;;;;;;;25.88;8.55;;;;;;;;;;6153017;23;20030;-75
2022/10/11 07:37:01;;;;;;;27.65;8.77;;;;;;;;;;6153117;23;20029;-75
2022/10/11 07:39:27;;;;;;;18.08;7.85;;;;;;;;;;6153561;23;20037;-75
2022/10/11 07:41:53;;;;;;;19.20;7.43;;;;;;;;;;6153300;23;20033;-75
2022/10/11 07:44:19;;;;;;;14.38;7.53;;;;;;;;;;6152887;23;20030;-75
2022/10/11 07:46:46;;;;;;;17.15;7.18;;;;;;;;;;6152838;23;20026;-75
2022/10/11 07:49:12;;;;;;;10.65;6.15;;;;;;;;;;6153288;23;20030;-75
2022/10/11 07:51:38;;;;;;;15.93;6.78;;;;;;;;;;6153714;23;20030;-76
2022/10/11 07:54:05;;;;;;;16.30;6.65;;;;;;;;;;6152813;23;20057;-76
2022/10/11 07:56:33;;;;;;;19.83;7.38;;;;;;;;;;6125584;23;20033;-75
2022/10/11 07:59:02;;;;;;;21.40;7.18;;;;;;;;;;6153189;23;20026;-75
2022/10/11 08:01:32;;;;;;;16.98;7.28;;;;;;;;;;6152821;23;20036;-76
2022/10/11 08:03:58;;;;;;;14.95;6.63;;;;;;;;;;6152963;23;20029;-75
2022/10/11 08:06:28;;;;;;;15.93;6.85;;;;;;;;;;6153042;23;20037;-75
2022/10/11 08:08:55;;;;;;;14.70;6.65;;;;;;;;;;6151751;23;20037;-76
2022/10/11 08:11:23;;;;;;;22.65;7.22;;;;;;;;;;6151568;23;20029;-75
2022/10/11 08:13:50;;;;;;;13.13;6.97;;;;;;;;;;6152282;23;20633;-75
2022/10/11 08:16:31;;;;;;;12.48;5.93;;;;;;;;;;6111100;23;20097;-74
2022/10/11 08:18:57;;;;;;;15.48;7.15;;;;;;;;;;6152729;23;20060;-75
2022/10/11 08:21:25;;;;;;;13.93;6.45;;;;;;;;;;6126383;23;20491;-75
2022/10/11 08:23:51;;;;;;;20.90;7.45;;;;;;;;;;6127556;23;20043;-75
2022/10/11 08:26:18;;;;;;;20.40;6.75;;;;;;;;;;6153532;23;20494;-75
2022/10/11 08:28:44;;;;;;;16.33;7.00;;;;;;;;;;6127619;23;20121;-75
2022/10/11 08:31:12;;;;;;;14.00;6.82;;;;;;;;;;6151784;23;20537;-75
2022/10/11 08:33:38;;;;;;;22.15;5.03;;;;;;;;;;6153475;23;20030;-75
2022/10/11 08:36:04;;;;;;;14.63;4.93;;;;;;;;;;6153422;23;20483;-76
2022/10/11 08:38:32;;;;;;;14.43;4.05;;;;;;;;;;6127127;23;20034;-76
2022/10/11 08:40:59;;;;;;;10.00;3.78;;;;;;;;;;6153871;23;20026;-75
2022/10/11 08:43:32;;;;;;;17.10;3.85;;;;;;;;;;6151158;23;20033;-76
2022/10/11 08:46:00;;;;;;;12.85;3.38;;;;;;;;;;6151228;23;20033;-76
2022/10/11 08:48:46;;;;;;;13.63;3.70;;;;;;;;;;6125151;23;20048;-76
2022/10/11 08:51:17;;;;;;;13.85;3.47;;;;;;;;;;6127791;23;20030;-76
2022/10/11 08:53:43;;;;;;;;;;;;;;;;;;6127931;23;20026;-76
2022/10/11 08:56:11;;;;;;;15.48;2.75;;;;;;;;;;6152620;23;47887;-75
2022/10/11 08:58:40;;;;;;;10.65;2.30;;;;;;;;;;6153732;23;20034;-75
2022/10/11 09:01:12;;;;;;;11.73;2.78;;;;;;;;;;6153361;23;20026;-75
2022/10/11 09:03:40;;;;;;;13.93;2.63;;;;;;;;;;6153787;23;20041;-75
2022/10/11 09:06:09;;;;;;;10.52;1.80;;;;;;;;;;6126995;23;20029;-75
2022/10/11 09:08:59;;;;;;;10.18;2.70;;;;;;;;;;6168494;23;20032;-75
2022/10/11 09:11:31;;;;;;;12.77;2.45;;;;;;;;;;6140261;23;20089;-75
2022/10/11 09:14:03;;;;;;;6.85;1.42;;;;;;;;;;6182738;23;20433;-75
2022/10/11 09:16:48;;;;;;;10.30;2.28;;;;;;;;;;6182567;23;20026;-75
2022/10/11 09:19:53;;;;;;;12.80;2.47;;;;;;;;;;6183142;23;20471;-76
2022/10/11 09:22:28;;;;;;;12.50;1.98;;;;;;;;;;6090830;23;20071;-75
2022/10/11 09:25:08;;;;;;;10.88;1.88;;;;;;;;;;6067182;23;20027;-76
2022/10/11 09:27:36;;;;;;;8.20;1.90;;;;;;;;;;6148243;23;20037;-75
2022/10/11 09:30:22;;;;;;;10.93;2.00;;;;;;;;;;6181062;23;20025;-76
2022/10/11 09:32:58;;;;;;;8.60;1.70;;;;;;;;;;6181309;23;20509;-75
2022/10/11 09:35:24;;;;;;;11.80;1.75;;;;;;;;;;6182447;23;20025;-76
2022/10/11 09:37:56;;;;;;;12.10;2.22;;;;;;;;;;6182461;23;21010;-75
2022/10/11 09:40:37;;;;;;;8.18;1.73;;;;;;;;;;6183019;23;20037;-75
2022/10/11 09:43:03;;;;;;;9.98;2.00;;;;;;;;;;6183623;23;20025;-77
2022/10/11 09:45:29;;;;;;;12.93;1.75;;;;;;;;;;6181217;23;20478;-76
2022/10/11 09:47:58;;;;;;;9.07;1.80;;;;;;;;;;6183458;23;20030;-75
2022/10/11 09:50:27;;;;;;;6.53;1.58;;;;;;;;;;6181862;23;20037;-75
2022/10/11 09:52:54;;;;;;;8.23;1.40;;;;;;;;;;6183002;23;20674;-75
2022/10/11 09:55:39;;;;;;;7.82;1.45;;;;;;;;;;6182437;23;20029;-76
2022/10/11 09:58:24;;;;;;;11.70;2.05;;;;;;;;;;6183175;23;20029;-76
2022/10/11 10:01:10;;;;;;;9.07;1.90;;;;;;;;;;6182896;23;20029;-76
2022/10/11 10:03:38;;;;;;;8.40;1.85;;;;;;;;;;6181037;23;20029;-76
2022/10/11 10:06:14;;;;;;;9.70;1.90;;;;;;;;;;6182855;23;20032;-76
2022/10/11 10:08:41;;;;;;;10.40;1.70;;;;;;;;;;6157631;23;20943;-76
2022/10/11 10:11:09;;;;;;;9.32;2.00;;;;;;;;;;6127396;23;20030;-76
2022/10/11 10:13:48;;;;;;;13.35;2.10;;;;;;;;;;6153072;23;20079;-76
2022/10/11 10:16:25;;;;;;;12.70;2.20;;;;;;;;;;6126199;23;20111;-76
2022/10/11 10:18:54;;;;;;;10.90;2.00;;;;;;;;;;6153497;23;20037;-76
2022/10/11 10:21:24;;;;;;;8.20;2.28;;;;;;;;;;6151862;23;20149;-76
2022/10/11 10:23:53;;;;;;;7.03;1.70;;;;;;;;;;6152320;23;20030;-76
2022/10/11 10:26:21;;;;;;;12.25;1.98;;;;;;;;;;6126267;23;20086;-76
2022/10/11 10:29:06;;;;;;;9.32;2.00;;;;;;;;;;6151720;23;20480;-77
2022/10/11 10:31:48;;;;;;;9.00;2.00;;;;;;;;;;6127697;23;20036;-77
2022/10/11 10:34:36;;;;;;;11.93;2.28;;;;;;;;;;6154027;23;20085;-77
2022/10/11 10:37:07;;;;;;;9.93;1.70;;;;;;;;;;6153330;23;20478;-77
2022/10/11 10:39:33;;;;;;;;;;;;;;;;;;6128462;23;20026;-77
2022/10/11 10:42:02;;;;;;;6.95;1.70;;;;;;;;;;6126968;23;47379;-76
2022/10/11 10:44:28;;;;;;;9.52;1.52;;;;;;;;;;6154026;23;20026;-77
2022/10/11 10:47:04;;;;;;;12.38;1.85;;;;;;;;;;6153851;23;20483;-76
2022/10/11 10:49:30;;;;;;;10.90;1.52;;;;;;;;;;6153984;23;20034;-76
2022/10/11 10:52:19;;;;;;;10.50;1.98;;;;;;;;;;6154608;23;20026;-77
2022/10/11 10:54:54;;;;;;;13.35;2.00;;;;;;;;;;6155053;23;20030;-77
2022/10/11 10:57:27;;;;;;;9.73;1.63;;;;;;;;;;6154422;23;20026;-76
2022/10/11 11:00:02;;;;;;;9.38;1.73;;;;;;;;;;6152151;23;20026;-77
2022/10/11 11:02:34;;;;;;;9.02;1.90;;;;;;;;;;6126808;23;20144;-79
2022/10/11 11:05:06;;;;;;;9.70;1.92;;;;;;;;;;6152993;23;20037;-78
2022/10/11 11:07:38;;;;;;;8.13;1.67;;;;;;;;;;6153018;23;20062;-79
2022/10/11 11:10:09;;;;;;;8.63;2.00;;;;;;;;;;6153239;23;20030;-77
2022/10/11 11:12:36;;;;;;;6.30;1.33;;;;;;;;;;6127517;23;20026;-79
2022/10/11 11:15:02;;;;;;;9.00;1.85;;;;;;;;;;6126618;23;20466;-78
2022/10/11 11:17:42;;;;;;;9.13;1.63;;;;;;;;;;6126867;23;20037;-77
2022/10/11 11:20:20;;;;;;;10.10;1.50;;;;;;;;;;6128312;23;20360;-78
2022/10/11 11:23:05;;;;;;;10.13;1.48;;;;;;;;;;6126886;23;20075;-79
2022/10/11 11:25:35;;;;;;;9.55;1.50;;;;;;;;;;6153247;23;20034;-78
2022/10/11 11:28:17;;;;;;;9.73;1.50;;;;;;;;;;6127831;23;20026;-77
2022/10/11 11:30:59;;;;;;;10.48;1.52;;;;;;;;;;6127575;23;20151;-78
2022/10/11 11:33:39;;;;;;;11.80;2.35;;;;;;;;;;6126965;23;20030;-78
2022/10/11 11:36:12;;;;;;;7.25;1.38;;;;;;;;;;6153372;23;20486;-78
2022/10/11 11:38:44;;;;;;;10.75;1.77;;;;;;;;;;6153034;23;20033;-78
2022/10/11 11:41:34;;;;;;;9.73;1.60;;;;;;;;;;6127187;23;20033;-78
2022/10/11 11:44:13;;;;;;;8.50;1.97;;;;;;;;;;6115563;23;20034;-77
2022/10/11 11:46:43;;;;;;;9.20;1.60;;;;;;;;;;6126515;23;20033;-77
2022/10/11 11:49:16;;;;;;;6.53;1.20;;;;;;;;;;6127163;23;20025;-78
2022/10/11 11:51:44;;;;;;;8.65;1.63;;;;;;;;;;6153413;23;20030;-78
2022/10/11 11:54:10;;;;;;;12.80;1.80;;;;;;;;;;6151364;23;20034;-77
2022/10/11 11:56:55;;;;;;;11.68;1.85;;;;;;;;;;6153496;23;20026;-78
2022/10/11 11:59:38;;;;;;;10.90;1.70;;;;;;;;;;6124650;23;20030;-77
2022/10/11 12:02:10;;;;;;;10.10;1.73;;;;;;;;;;6126664;23;20102;-79
2022/10/11 12:04:38;;;;;;;7.28;1.52;;;;;;;;;;6152810;23;20026;-78
2022/10/11 12:07:06;;;;;;;9.80;1.50;;;;;;;;;;6126700;23;20105;-79
2022/10/11 12:09:44;;;;;;;10.93;2.05;;;;;;;;;;6129330;23;20026;-78
2022/10/11 12:12:25;;;;;;;11.43;2.13;;;;;;;;;;6151076;23;20022;-77
2022/10/11 12:15:01;;;;;;;11.30;1.75;;;;;;;;;;6126265;23;20033;-78
2022/10/11 12:17:27;;;;;;;7.95;1.52;;;;;;;;;;6126988;23;20034;-78
2022/10/11 12:20:03;;;;;;;7.97;1.92;;;;;;;;;;6126484;23;20111;-78
2022/10/11 12:22:29;;;;;;;7.97;1.70;;;;;;;;;;6124935;23;20036;-78
2022/10/11 12:24:57;;;;;;;9.68;2.05;;;;;;;;;;6127143;23;20025;-78
2022/10/11 12:27:37;;;;;;;9.32;2.10;;;;;;;;;;6153006;23;20038;-79
2022/10/11 12:30:24;;;;;;;10.82;1.85;;;;;;;;;;6127172;23;20029;-78
2022/10/11 12:32:50;;;;;;;10.57;1.52;;;;;;;;;;6125711;23;20479;-78
2022/10/11 12:35:29;;;;;;;7.88;1.98;;;;;;;;;;6126906;23;20036;-78
2022/10/11 12:38:14;;;;;;;10.90;1.92;;;;;;;;;;6126064;23;20030;-77
2022/10/11 12:40:41;;;;;;;9.85;2.03;;;;;;;;;;6127049;23;20030;-78
2022/10/11 12:43:22;;;;;;;8.98;2.15;;;;;;;;;;6152914;23;20459;-78
2022/10/11 12:45:49;;;;;;;11.77;1.95;;;;;;;;;;6153702;23;20026;-78
2022/10/11 12:48:24;;;;;;;9.68;1.50;;;;;;;;;;6151951;23;20026;-78
2022/10/11 12:51:08;;;;;;;8.45;1.83;;;;;;;;;;6129023;23;20419;-78
2022/10/11 12:53:37;;;;;;;15.02;2.10;;;;;;;;;;6152291;23;20018;-78
2022/10/11 12:56:24;;;;;;;4.35;1.25;;;;;;;;;;6153833;23;21077;-77
2022/10/11 12:58:59;;;;;;;9.45;1.70;;;;;;;;;;6154395;23;20037;-77
2022/10/11 13:01:28;;;;;;;11.80;1.80;;;;;;;;;;6126470;23;20061;-78
2022/10/11 13:04:05;;;;;;;7.22;1.40;;;;;;;;;;6150818;23;20037;-78
2022/10/11 13:06:34;;;;;;;12.13;2.00;;;;;;;;;;6153532;23;20033;-78
2022/10/11 13:09:03;;;;;;;7.60;1.98;;;;;;;;;;6151491;23;20034;-78
2022/10/11 13:11:32;;;;;;;6.40;1.38;;;;;;;;;;6126361;23;20521;-78
2022/10/11 13:14:00;;;;;;;8.95;1.40;;;;;;;;;;6127687;23;20037;-78
2022/10/11 13:16:27;;;;;;;6.95;1.38;;;;;;;;;;6126924;23;20026;-78
2022/10/11 13:18:55;;;;;;;10.40;1.80;;;;;;;;;;6152159;23;20032;-78
2022/10/11 13:21:30;;;;;;;8.50;1.50;;;;;;;;;;6152050;23;20030;-77
2022/10/11 13:23:58;;;;;;;9.32;1.60;;;;;;;;;;6124844;23;20029;-78
2022/10/11 13:26:25;;;;;;;8.88;1.63;;;;;;;;;;6151501;23;20050;-77
2022/10/11 13:28:51;;;;;;;9.60;1.92;;;;;;;;;;6151293;23;20026;-78
2022/10/11 13:31:17;;;;;;;9.23;1.52;;;;;;;;;;6151915;23;20033;-79
2022/10/11 13:33:46;;;;;;;12.60;2.03;;;;;;;;;;6125716;23;20022;-77
2022/10/11 13:36:16;;;;;;;8.75;1.73;;;;;;;;;;6127275;23;20018;-78
2022/10/11 13:38:49;;;;;;;9.82;1.65;;;;;;;;;;6126762;23;20029;-77
2022/10/11 13:41:15;;;;;;;7.38;1.75;;;;;;;;;;6151323;23;20088;-78
2022/10/11 13:43:42;;;;;;;12.02;1.75;;;;;;;;;;6124195;23;20056;-77
2022/10/11 13:46:15;;;;;;;9.13;2.03;;;;;;;;;;6126523;23;20054;-78
2022/10/11 13:48:41;;;;;;;10.43;1.95;;;;;;;;;;6125580;23;20030;-78
2022/10/11 13:51:11;;;;;;;11.25;1.88;;;;;;;;;;6124767;23;20112;-78
2022/10/11 13:53:55;;;;;;;8.98;1.63;;;;;;;;;;6126520;23;20033;-78
2022/10/11 13:56:21;;;;;;;12.35;1.92;;;;;;;;;;6125664;23;20034;-77
2022/10/11 13:58:47;;;;;;;9.63;1.52;;;;;;;;;;6126053;23;20053;-78
2022/10/11 14:01:19;;;;;;;9.25;2.40;;;;;;;;;;6124275;23;20037;-78
2022/10/11 14:04:07;;;;;;;7.43;1.80;;;;;;;;;;6150522;23;20136;-77
2022/10/11 14:06:50;;;;;;;9.13;1.48;;;;;;;;;;6148811;23;20506;-77
2022/10/11 14:09:18;;;;;;;9.30;1.77;;;;;;;;;;6150191;23;20030;-77
2022/10/11 14:11:45;;;;;;;7.22;1.42;;;;;;;;;;6148597;23;20056;-76
2022/10/11 14:14:26;;;;;;;7.55;1.35;;;;;;;;;;6150275;23;20105;-78
2022/10/11 14:16:57;;;;;;;10.07;2.05;;;;;;;;;;6148027;23;20104;-77
2022/10/11 14:19:24;;;;;;;10.27;2.03;;;;;;;;;;6151682;23;20022;-77
2022/10/11 14:21:51;;;;;;;7.47;1.77;;;;;;;;;;6150189;23;20542;-77
2022/10/11 14:24:18;;;;;;;7.05;1.80;;;;;;;;;;6150147;23;20036;-77
2022/10/11 14:26:45;;;;;;;15.15;2.22;;;;;;;;;;6147289;23;20081;-78
2022/10/11 14:29:14;;;;;;;9.45;1.95;;;;;;;;;;6151642;23;20426;-77
2022/10/11 14:31:41;;;;;;;9.50;1.63;;;;;;;;;;6151985;23;20073;-77
2022/10/11 14:34:13;;;;;;;8.50;1.50;;;;;;;;;;6151542;23;20029;-79
2022/10/11 14:36:39;;;;;;;7.40;1.38;;;;;;;;;;6152352;23;20813;-77
2022/10/11 14:39:12;;;;;;;7.90;1.42;;;;;;;;;;6152355;23;20048;-78
2022/10/11 14:41:38;;;;;;;9.13;1.67;;;;;;;;;;6151264;23;20655;-78
2022/10/11 14:44:05;;;;;;;9.70;1.60;;;;;;;;;;6150408;23;20033;-78
2022/10/11 14:46:31;;;;;;;7.63;1.35;;;;;;;;;;6152854;23;20518;-78
2022/10/11 14:48:57;;;;;;;9.95;1.58;;;;;;;;;;6151341;23;20037;-78
2022/10/11 14:51:26;;;;;;;10.40;1.63;;;;;;;;;;6152468;23;20030;-78
2022/10/11 14:53:52;;;;;;;6.88;1.90;;;;;;;;;;6150992;23;20501;-78
2022/10/11 14:56:19;;;;;;;6.32;1.58;;;;;;;;;;6150697;23;20041;-77